sensor_id;sensor_type;location;lat;lon;timestamp;temperature;humidity
3614;DHT22;1821;50.936;6.854;2023-04-19T00:18:47;12.30;99.90
3614;DHT22;1821;50.936;6.854;2023-04-19T00:19:29;12.30;99.90
3614;DHT22;1821;50.936;6.854;2023-04-19T01:00:15;12.20;99.90
3614;DHT22;1821;50.936;6.854;2023-04-19T01:04:32;12.00;99.90
3614;DHT22;1821;50.936;6.854;2023-04-19T01:08:06;11.90;99.90
3614;DHT22;1821;50.936;6.854;2023-04-19T01:10:13;11.90;99.90
3614;DHT22;1821;50.936;6.854;2023-04-19T01:10:57;12.00;99.90
3614;DHT22;1821;50.936;6.854;2023-04-19T01:11:39;11.80;99.90
3614;DHT22;1821;50.936;6.854;2023-04-19T01:13:06;11.60;99.90
3614;DHT22;1821;50.936;6.854;2023-04-19T01:14:31;11.90;99.90
3614;DHT22;1821;50.936;6.854;2023-04-19T01:22:20;11.80;99.90
3614;DHT22;1821;50.936;6.854;2023-04-19T01:24:28;11.90;99.90
3614;DHT22;1821;50.936;6.854;2023-04-19T01:25:10;11.70;99.90
3614;DHT22;1821;50.936;6.854;2023-04-19T01:28:00;11.80;99.90
3614;DHT22;1821;50.936;6.854;2023-04-19T01:28:42;11.60;99.90
3614;DHT22;1821;50.936;6.854;2023-04-19T01:29:24;11.80;99.90
3614;DHT22;1821;50.936;6.854;2023-04-19T01:30:49;11.80;99.90
3614;DHT22;1821;50.936;6.854;2023-04-19T01:32:59;11.90;99.90
3614;DHT22;1821;50.936;6.854;2023-04-19T01:33:41;11.70;99.90
3614;DHT22;1821;50.936;6.854;2023-04-19T01:36:30;11.70;99.90
3614;DHT22;1821;50.936;6.854;2023-04-19T01:38:37;11.40;99.90
3614;DHT22;1821;50.936;6.854;2023-04-19T01:40:46;11.50;99.90
3614;DHT22;1821;50.936;6.854;2023-04-19T01:42:10;11.40;99.90
3614;DHT22;1821;50.936;6.854;2023-04-19T01:43:35;11.40;99.90
3614;DHT22;1821;50.936;6.854;2023-04-19T01:48:33;11.40;99.90
3614;DHT22;1821;50.936;6.854;2023-04-19T01:52:04;11.00;99.90
3614;DHT22;1821;50.936;6.854;2023-04-19T01:52:46;11.10;99.90
3614;DHT22;1821;50.936;6.854;2023-04-19T01:53:28;11.10;99.90
3614;DHT22;1821;50.936;6.854;2023-04-19T01:54:10;11.10;99.90
3614;DHT22;1821;50.936;6.854;2023-04-19T01:54:52;11.20;99.90
3614;DHT22;1821;50.936;6.854;2023-04-19T01:55:34;11.20;99.90
3614;DHT22;1821;50.936;6.854;2023-04-19T01:56:16;11.00;99.90
3614;DHT22;1821;50.936;6.854;2023-04-19T01:56:58;11.10;99.90
3614;DHT22;1821;50.936;6.854;2023-04-19T01:58:23;11.00;99.90
3614;DHT22;1821;50.936;6.854;2023-04-19T01:59:05;11.00;99.90
3614;DHT22;1821;50.936;6.854;2023-04-19T02:01:53;11.00;99.90
3614;DHT22;1821;50.936;6.854;2023-04-19T02:02:36;11.20;99.90
3614;DHT22;1821;50.936;6.854;2023-04-19T02:04:44;11.30;99.90
3614;DHT22;1821;50.936;6.854;2023-04-19T02:05:26;11.00;99.90
3614;DHT22;1821;50.936;6.854;2023-04-19T02:06:11;11.20;99.90
3614;DHT22;1821;50.936;6.854;2023-04-19T02:06:53;11.10;99.90
3614;DHT22;1821;50.936;6.854;2023-04-19T02:07:36;11.50;99.90
3614;DHT22;1821;50.936;6.854;2023-04-19T02:08:18;11.20;99.90
3614;DHT22;1821;50.936;6.854;2023-04-19T02:09:00;11.10;99.90
3614;DHT22;1821;50.936;6.854;2023-04-19T02:11:10;11.00;99.90
3614;DHT22;1821;50.936;6.854;2023-04-19T02:11:52;11.20;99.90
3614;DHT22;1821;50.936;6.854;2023-04-19T02:12:34;11.20;99.90
3614;DHT22;1821;50.936;6.854;2023-04-19T02:13:16;11.30;99.90
3614;DHT22;1821;50.936;6.854;2023-04-19T02:14:41;11.10;99.90
3614;DHT22;1821;50.936;6.854;2023-04-19T02:18:58;10.90;99.90
3614;DHT22;1821;50.936;6.854;2023-04-19T02:19:42;11.00;99.90
3614;DHT22;1821;50.936;6.854;2023-04-19T02:21:09;10.90;99.90
3614;DHT22;1821;50.936;6.854;2023-04-19T02:25:31;11.20;99.90
3614;DHT22;1821;50.936;6.854;2023-04-19T02:31:12;11.30;99.90
3614;DHT22;1821;50.936;6.854;2023-04-19T02:32:36;11.10;99.90
3614;DHT22;1821;50.936;6.854;2023-04-19T02:37:35;11.20;99.90
3614;DHT22;1821;50.936;6.854;2023-04-19T02:38:17;11.10;99.90
3614;DHT22;1821;50.936;6.854;2023-04-19T02:54:38;11.10;99.90
3614;DHT22;1821;50.936;6.854;2023-04-19T02:55:20;11.10;99.90
3614;DHT22;1821;50.936;6.854;2023-04-19T04:20:02;11.10;99.90
3614;DHT22;1821;50.936;6.854;2023-04-19T04:22:09;10.90;99.90
3614;DHT22;1821;50.936;6.854;2023-04-19T04:30:42;11.00;99.90
3614;DHT22;1821;50.936;6.854;2023-04-19T04:38:37;10.90;99.90
3614;DHT22;1821;50.936;6.854;2023-04-19T04:47:35;11.00;99.90
3614;DHT22;1821;50.936;6.854;2023-04-19T04:49:47;11.00;99.90
3614;DHT22;1821;50.936;6.854;2023-04-19T04:50:29;11.10;99.90
3614;DHT22;1821;50.936;6.854;2023-04-19T04:52:35;11.10;99.90
3614;DHT22;1821;50.936;6.854;2023-04-19T04:53:17;11.10;99.90
3614;DHT22;1821;50.936;6.854;2023-04-19T04:56:07;11.00;99.90
3614;DHT22;1821;50.936;6.854;2023-04-19T04:56:48;11.10;99.90
3614;DHT22;1821;50.936;6.854;2023-04-19T04:58:13;11.20;99.90
3614;DHT22;1821;50.936;6.854;2023-04-19T05:03:59;11.20;99.90
3614;DHT22;1821;50.936;6.854;2023-04-19T05:04:42;11.20;99.90
3614;DHT22;1821;50.936;6.854;2023-04-19T05:05:26;11.00;99.90
3614;DHT22;1821;50.936;6.854;2023-04-19T05:06:07;11.00;99.90
3614;DHT22;1821;50.936;6.854;2023-04-19T05:06:49;11.00;99.90
3614;DHT22;1821;50.936;6.854;2023-04-19T05:07:32;11.20;99.90
3614;DHT22;1821;50.936;6.854;2023-04-19T05:08:13;10.90;99.90
3614;DHT22;1821;50.936;6.854;2023-04-19T05:08:55;10.70;99.90
3614;DHT22;1821;50.936;6.854;2023-04-19T05:09:37;11.20;99.90
3614;DHT22;1821;50.936;6.854;2023-04-19T05:10:19;11.00;99.90
3614;DHT22;1821;50.936;6.854;2023-04-19T05:12:27;11.00;99.90
3614;DHT22;1821;50.936;6.854;2023-04-19T05:13:08;10.90;99.90
3614;DHT22;1821;50.936;6.854;2023-04-19T05:13:51;11.00;99.90
3614;DHT22;1821;50.936;6.854;2023-04-19T05:14:32;11.20;99.90
3614;DHT22;1821;50.936;6.854;2023-04-19T05:15:14;10.90;99.90
3614;DHT22;1821;50.936;6.854;2023-04-19T05:15:57;11.00;99.90
3614;DHT22;1821;50.936;6.854;2023-04-19T05:16:41;11.10;99.90
3614;DHT22;1821;50.936;6.854;2023-04-19T05:17:23;11.00;99.90
3614;DHT22;1821;50.936;6.854;2023-04-19T05:18:05;11.10;99.90
3614;DHT22;1821;50.936;6.854;2023-04-19T05:18:47;11.20;99.90
3614;DHT22;1821;50.936;6.854;2023-04-19T05:19:29;11.00;99.90
3614;DHT22;1821;50.936;6.854;2023-04-19T05:20:11;11.20;99.90
3614;DHT22;1821;50.936;6.854;2023-04-19T05:20:53;10.90;99.90
3614;DHT22;1821;50.936;6.854;2023-04-19T05:23:01;11.10;99.90
3614;DHT22;1821;50.936;6.854;2023-04-19T05:23:46;11.00;99.90
3614;DHT22;1821;50.936;6.854;2023-04-19T05:24:27;11.00;99.90
3614;DHT22;1821;50.936;6.854;2023-04-19T05:25:09;11.10;99.90
3614;DHT22;1821;50.936;6.854;2023-04-19T05:28:02;11.00;99.90
3614;DHT22;1821;50.936;6.854;2023-04-19T05:28:45;11.00;99.90
3614;DHT22;1821;50.936;6.854;2023-04-19T05:29:30;10.60;99.90
3614;DHT22;1821;50.936;6.854;2023-04-19T05:30:12;11.30;99.90
3614;DHT22;1821;50.936;6.854;2023-04-19T05:31:39;11.20;99.90
3614;DHT22;1821;50.936;6.854;2023-04-19T05:32:21;10.80;99.90
3614;DHT22;1821;50.936;6.854;2023-04-19T05:33:46;11.00;99.90
3614;DHT22;1821;50.936;6.854;2023-04-19T05:34:28;11.20;99.90
3614;DHT22;1821;50.936;6.854;2023-04-19T05:35:11;11.10;99.90
3614;DHT22;1821;50.936;6.854;2023-04-19T05:35:53;11.00;99.90
3614;DHT22;1821;50.936;6.854;2023-04-19T05:37:17;11.00;99.90
3614;DHT22;1821;50.936;6.854;2023-04-19T05:38:01;11.20;99.90
3614;DHT22;1821;50.936;6.854;2023-04-19T05:40:08;11.30;99.90
3614;DHT22;1821;50.936;6.854;2023-04-19T05:40:51;11.20;99.90
3614;DHT22;1821;50.936;6.854;2023-04-19T05:41:33;11.10;99.90
3614;DHT22;1821;50.936;6.854;2023-04-19T05:42:15;11.30;99.90
3614;DHT22;1821;50.936;6.854;2023-04-19T05:42:57;11.00;99.90
3614;DHT22;1821;50.936;6.854;2023-04-19T05:43:41;11.20;99.90
3614;DHT22;1821;50.936;6.854;2023-04-19T05:44:23;11.00;99.90
3614;DHT22;1821;50.936;6.854;2023-04-19T05:45:05;11.20;99.90
3614;DHT22;1821;50.936;6.854;2023-04-19T05:45:48;11.00;99.90
3614;DHT22;1821;50.936;6.854;2023-04-19T05:46:30;11.00;99.90
3614;DHT22;1821;50.936;6.854;2023-04-19T05:47:14;11.10;99.90
3614;DHT22;1821;50.936;6.854;2023-04-19T05:48:42;11.10;99.90
3614;DHT22;1821;50.936;6.854;2023-04-19T05:50:07;11.30;99.90
3614;DHT22;1821;50.936;6.854;2023-04-19T05:50:51;11.20;99.90
3614;DHT22;1821;50.936;6.854;2023-04-19T05:53:00;11.10;99.90
3614;DHT22;1821;50.936;6.854;2023-04-19T05:53:41;11.20;99.90
3614;DHT22;1821;50.936;6.854;2023-04-19T05:54:23;11.20;99.90
3614;DHT22;1821;50.936;6.854;2023-04-19T05:55:05;11.20;99.90
3614;DHT22;1821;50.936;6.854;2023-04-19T05:55:47;11.00;99.90
3614;DHT22;1821;50.936;6.854;2023-04-19T05:58:37;11.30;99.90
3614;DHT22;1821;50.936;6.854;2023-04-19T05:59:19;11.40;99.90
3614;DHT22;1821;50.936;6.854;2023-04-19T06:02:10;11.30;99.90
3614;DHT22;1821;50.936;6.854;2023-04-19T06:02:52;11.10;99.90
3614;DHT22;1821;50.936;6.854;2023-04-19T06:04:19;11.20;99.90
3614;DHT22;1821;50.936;6.854;2023-04-19T06:06:33;11.00;99.90
3614;DHT22;1821;50.936;6.854;2023-04-19T06:07:15;11.30;99.90
3614;DHT22;1821;50.936;6.854;2023-04-19T06:08:13;11.30;99.90
3614;DHT22;1821;50.936;6.854;2023-04-19T06:08:57;11.20;99.90
3614;DHT22;1821;50.936;6.854;2023-04-19T06:09:39;11.10;99.90
3614;DHT22;1821;50.936;6.854;2023-04-19T06:10:21;11.10;99.90
3614;DHT22;1821;50.936;6.854;2023-04-19T06:12:00;11.00;99.90
3614;DHT22;1821;50.936;6.854;2023-04-19T06:12:42;11.00;99.90
3614;DHT22;1821;50.936;6.854;2023-04-19T06:13:26;11.10;99.90
3614;DHT22;1821;50.936;6.854;2023-04-19T06:14:10;11.00;99.90
3614;DHT22;1821;50.936;6.854;2023-04-19T06:14:53;11.20;99.90
3614;DHT22;1821;50.936;6.854;2023-04-19T06:15:35;11.10;99.90
3614;DHT22;1821;50.936;6.854;2023-04-19T06:16:17;11.30;99.90
3614;DHT22;1821;50.936;6.854;2023-04-19T06:17:01;11.20;99.90
3614;DHT22;1821;50.936;6.854;2023-04-19T06:17:43;11.10;99.90
3614;DHT22;1821;50.936;6.854;2023-04-19T06:18:25;11.20;99.90
3614;DHT22;1821;50.936;6.854;2023-04-19T06:19:09;11.10;99.90
3614;DHT22;1821;50.936;6.854;2023-04-19T06:19:52;11.20;99.90
3614;DHT22;1821;50.936;6.854;2023-04-19T06:20:33;11.00;99.90
3614;DHT22;1821;50.936;6.854;2023-04-19T06:21:16;11.20;99.90
3614;DHT22;1821;50.936;6.854;2023-04-19T06:21:57;11.20;99.90
3614;DHT22;1821;50.936;6.854;2023-04-19T06:22:44;11.30;99.90
3614;DHT22;1821;50.936;6.854;2023-04-19T06:24:08;11.30;99.90
3614;DHT22;1821;50.936;6.854;2023-04-19T06:26:17;11.30;99.90
3614;DHT22;1821;50.936;6.854;2023-04-19T06:26:59;11.30;99.90
3614;DHT22;1821;50.936;6.854;2023-04-19T06:27:42;11.30;99.90
3614;DHT22;1821;50.936;6.854;2023-04-19T06:28:26;11.40;99.90
3614;DHT22;1821;50.936;6.854;2023-04-19T06:29:09;11.10;99.90
3614;DHT22;1821;50.936;6.854;2023-04-19T06:29:51;11.20;99.90
3614;DHT22;1821;50.936;6.854;2023-04-19T06:30:32;11.20;99.90
3614;DHT22;1821;50.936;6.854;2023-04-19T06:31:14;11.30;99.90
3614;DHT22;1821;50.936;6.854;2023-04-19T06:31:56;11.20;99.90
3614;DHT22;1821;50.936;6.854;2023-04-19T06:34:03;11.30;99.90
3614;DHT22;1821;50.936;6.854;2023-04-19T06:34:45;11.30;99.90
3614;DHT22;1821;50.936;6.854;2023-04-19T06:35:30;11.00;99.90
3614;DHT22;1821;50.936;6.854;2023-04-19T06:36:56;11.30;99.90
3614;DHT22;1821;50.936;6.854;2023-04-19T06:37:39;11.10;99.90
3614;DHT22;1821;50.936;6.854;2023-04-19T06:38:21;11.30;99.90
3614;DHT22;1821;50.936;6.854;2023-04-19T06:39:02;11.30;99.90
3614;DHT22;1821;50.936;6.854;2023-04-19T06:39:44;11.10;99.90
3614;DHT22;1821;50.936;6.854;2023-04-19T06:40:26;11.30;99.90
3614;DHT22;1821;50.936;6.854;2023-04-19T06:41:09;11.40;99.90
3614;DHT22;1821;50.936;6.854;2023-04-19T06:42:34;11.10;99.90
3614;DHT22;1821;50.936;6.854;2023-04-19T06:43:16;11.20;99.90
3614;DHT22;1821;50.936;6.854;2023-04-19T06:43:58;11.30;99.90
3614;DHT22;1821;50.936;6.854;2023-04-19T06:44:41;11.20;99.90
3614;DHT22;1821;50.936;6.854;2023-04-19T06:45:22;11.40;99.90
3614;DHT22;1821;50.936;6.854;2023-04-19T06:46:07;11.20;99.90
3614;DHT22;1821;50.936;6.854;2023-04-19T06:46:49;11.50;99.90
3614;DHT22;1821;50.936;6.854;2023-04-19T06:47:31;11.40;99.90
3614;DHT22;1821;50.936;6.854;2023-04-19T06:48:16;11.60;99.90
3614;DHT22;1821;50.936;6.854;2023-04-19T06:50:24;11.30;99.90
3614;DHT22;1821;50.936;6.854;2023-04-19T06:51:06;11.20;99.90
3614;DHT22;1821;50.936;6.854;2023-04-19T06:51:48;11.30;99.90
3614;DHT22;1821;50.936;6.854;2023-04-19T06:52:30;11.30;99.90
3614;DHT22;1821;50.936;6.854;2023-04-19T06:53:12;11.40;99.90
3614;DHT22;1821;50.936;6.854;2023-04-19T06:53:54;11.50;99.90
3614;DHT22;1821;50.936;6.854;2023-04-19T06:54:35;11.40;99.90
3614;DHT22;1821;50.936;6.854;2023-04-19T06:56:03;11.30;99.90
3614;DHT22;1821;50.936;6.854;2023-04-19T06:57:29;11.60;99.90
3614;DHT22;1821;50.936;6.854;2023-04-19T06:58:11;11.60;99.90
3614;DHT22;1821;50.936;6.854;2023-04-19T06:59:37;11.40;99.90
3614;DHT22;1821;50.936;6.854;2023-04-19T07:01:04;11.40;99.90
3614;DHT22;1821;50.936;6.854;2023-04-19T07:01:46;11.30;99.90
3614;DHT22;1821;50.936;6.854;2023-04-19T07:02:29;11.30;99.90
3614;DHT22;1821;50.936;6.854;2023-04-19T07:06:03;11.50;99.90
3614;DHT22;1821;50.936;6.854;2023-04-19T07:06:48;11.50;99.90
3614;DHT22;1821;50.936;6.854;2023-04-19T07:07:30;11.70;99.90
3614;DHT22;1821;50.936;6.854;2023-04-19T07:08:12;11.70;99.90
3614;DHT22;1821;50.936;6.854;2023-04-19T07:08:54;11.50;99.90
3614;DHT22;1821;50.936;6.854;2023-04-19T07:09:36;11.70;99.90
3614;DHT22;1821;50.936;6.854;2023-04-19T07:10:18;11.90;99.90
3614;DHT22;1821;50.936;6.854;2023-04-19T07:11:00;11.60;99.90
3614;DHT22;1821;50.936;6.854;2023-04-19T07:11:45;11.90;99.90
3614;DHT22;1821;50.936;6.854;2023-04-19T07:12:28;11.80;99.90
3614;DHT22;1821;50.936;6.854;2023-04-19T07:13:10;11.70;99.90
3614;DHT22;1821;50.936;6.854;2023-04-19T07:13:52;11.60;99.90
3614;DHT22;1821;50.936;6.854;2023-04-19T07:14:34;11.70;99.90
3614;DHT22;1821;50.936;6.854;2023-04-19T07:15:16;11.70;99.90
3614;DHT22;1821;50.936;6.854;2023-04-19T07:15:58;11.60;99.90
3614;DHT22;1821;50.936;6.854;2023-04-19T07:16:40;11.90;99.90
3614;DHT22;1821;50.936;6.854;2023-04-19T07:17:22;11.80;99.90
3614;DHT22;1821;50.936;6.854;2023-04-19T07:18:04;11.90;99.90
3614;DHT22;1821;50.936;6.854;2023-04-19T07:18:46;11.80;99.90
3614;DHT22;1821;50.936;6.854;2023-04-19T07:19:28;11.90;99.90
3614;DHT22;1821;50.936;6.854;2023-04-19T07:20:10;11.90;99.90
3614;DHT22;1821;50.936;6.854;2023-04-19T07:22:19;11.70;99.90
3614;DHT22;1821;50.936;6.854;2023-04-19T07:23:01;11.70;99.90
3614;DHT22;1821;50.936;6.854;2023-04-19T07:23:44;11.90;99.90
3614;DHT22;1821;50.936;6.854;2023-04-19T07:24:26;11.80;99.90
3614;DHT22;1821;50.936;6.854;2023-04-19T07:26:37;11.80;99.90
3614;DHT22;1821;50.936;6.854;2023-04-19T07:27:19;12.00;99.90
3614;DHT22;1821;50.936;6.854;2023-04-19T07:28:01;12.30;99.90
3614;DHT22;1821;50.936;6.854;2023-04-19T07:29:25;12.10;99.90
3614;DHT22;1821;50.936;6.854;2023-04-19T07:30:08;12.10;99.90
3614;DHT22;1821;50.936;6.854;2023-04-19T07:30:50;12.30;99.90
3614;DHT22;1821;50.936;6.854;2023-04-19T07:31:32;12.30;99.90
3614;DHT22;1821;50.936;6.854;2023-04-19T07:32:14;12.40;99.90
3614;DHT22;1821;50.936;6.854;2023-04-19T07:33:39;12.70;99.90
3614;DHT22;1821;50.936;6.854;2023-04-19T07:34:21;12.90;99.90
3614;DHT22;1821;50.936;6.854;2023-04-19T07:35:48;12.50;99.90
3614;DHT22;1821;50.936;6.854;2023-04-19T07:36:29;12.80;99.90
3614;DHT22;1821;50.936;6.854;2023-04-19T07:37:12;12.60;99.90
3614;DHT22;1821;50.936;6.854;2023-04-19T07:37:54;12.40;99.90
3614;DHT22;1821;50.936;6.854;2023-04-19T07:38:36;12.50;99.90
3614;DHT22;1821;50.936;6.854;2023-04-19T07:39:18;12.40;99.90
3614;DHT22;1821;50.936;6.854;2023-04-19T07:40:00;12.50;99.90
3614;DHT22;1821;50.936;6.854;2023-04-19T07:40:42;12.40;99.90
3614;DHT22;1821;50.936;6.854;2023-04-19T07:41:24;12.40;99.90
3614;DHT22;1821;50.936;6.854;2023-04-19T07:42:06;12.30;99.90
3614;DHT22;1821;50.936;6.854;2023-04-19T07:42:50;12.50;99.90
3614;DHT22;1821;50.936;6.854;2023-04-19T07:43:32;12.30;99.90
3614;DHT22;1821;50.936;6.854;2023-04-19T07:45:40;12.30;99.90
3614;DHT22;1821;50.936;6.854;2023-04-19T07:46:22;12.40;99.90
3614;DHT22;1821;50.936;6.854;2023-04-19T07:47:04;12.20;99.90
3614;DHT22;1821;50.936;6.854;2023-04-19T07:47:46;12.50;99.90
3614;DHT22;1821;50.936;6.854;2023-04-19T07:48:28;12.50;99.90
3614;DHT22;1821;50.936;6.854;2023-04-19T07:49:10;12.30;99.90
3614;DHT22;1821;50.936;6.854;2023-04-19T07:49:52;12.60;99.90
3614;DHT22;1821;50.936;6.854;2023-04-19T07:50:34;12.60;99.90
3614;DHT22;1821;50.936;6.854;2023-04-19T07:52:00;12.80;99.90
3614;DHT22;1821;50.936;6.854;2023-04-19T07:52:42;13.00;99.90
3614;DHT22;1821;50.936;6.854;2023-04-19T07:53:24;12.90;99.90
3614;DHT22;1821;50.936;6.854;2023-04-19T07:54:06;12.80;99.90
3614;DHT22;1821;50.936;6.854;2023-04-19T07:54:48;12.80;99.90
3614;DHT22;1821;50.936;6.854;2023-04-19T07:55:30;12.90;99.90
3614;DHT22;1821;50.936;6.854;2023-04-19T07:56:14;12.60;99.90
3614;DHT22;1821;50.936;6.854;2023-04-19T07:56:56;12.70;99.90
3614;DHT22;1821;50.936;6.854;2023-04-19T07:58:26;12.80;99.90
3614;DHT22;1821;50.936;6.854;2023-04-19T07:59:08;12.70;99.90
3614;DHT22;1821;50.936;6.854;2023-04-19T07:59:50;12.90;99.90
3614;DHT22;1821;50.936;6.854;2023-04-19T08:00:34;12.90;99.90
3614;DHT22;1821;50.936;6.854;2023-04-19T08:01:18;12.90;99.90
3614;DHT22;1821;50.936;6.854;2023-04-19T08:02:00;13.00;99.90
3614;DHT22;1821;50.936;6.854;2023-04-19T08:03:30;13.10;99.90
3614;DHT22;1821;50.936;6.854;2023-04-19T08:05:42;13.20;99.90
3614;DHT22;1821;50.936;6.854;2023-04-19T08:06:25;13.20;99.90
3614;DHT22;1821;50.936;6.854;2023-04-19T08:07:51;13.20;99.90
3614;DHT22;1821;50.936;6.854;2023-04-19T08:08:34;13.20;99.90
3614;DHT22;1821;50.936;6.854;2023-04-19T08:10:40;13.20;99.90
3614;DHT22;1821;50.936;6.854;2023-04-19T08:11:22;13.20;99.90
3614;DHT22;1821;50.936;6.854;2023-04-19T08:12:05;13.30;99.90
3614;DHT22;1821;50.936;6.854;2023-04-19T08:12:48;13.30;99.90
3614;DHT22;1821;50.936;6.854;2023-04-19T08:13:46;13.60;99.90
3614;DHT22;1821;50.936;6.854;2023-04-19T08:14:47;13.30;99.90
3614;DHT22;1821;50.936;6.854;2023-04-19T08:16:33;13.30;99.90
3614;DHT22;1821;50.936;6.854;2023-04-19T08:19:36;13.50;99.90
3614;DHT22;1821;50.936;6.854;2023-04-19T08:20:18;13.50;99.90
3614;DHT22;1821;50.936;6.854;2023-04-19T08:21:00;13.50;99.90
3614;DHT22;1821;50.936;6.854;2023-04-19T08:21:45;13.40;99.90
3614;DHT22;1821;50.936;6.854;2023-04-19T08:23:09;13.30;99.90
3614;DHT22;1821;50.936;6.854;2023-04-19T08:24:06;13.50;99.90
3614;DHT22;1821;50.936;6.854;2023-04-19T08:25:34;13.50;99.90
3614;DHT22;1821;50.936;6.854;2023-04-19T08:26:16;13.40;99.90
3614;DHT22;1821;50.936;6.854;2023-04-19T08:26:58;13.70;99.90
3614;DHT22;1821;50.936;6.854;2023-04-19T08:27:40;13.50;99.90
3614;DHT22;1821;50.936;6.854;2023-04-19T08:28:22;13.50;99.90
3614;DHT22;1821;50.936;6.854;2023-04-19T08:29:04;13.30;99.90
3614;DHT22;1821;50.936;6.854;2023-04-19T08:29:46;13.50;99.90
3614;DHT22;1821;50.936;6.854;2023-04-19T08:30:28;13.40;99.90
3614;DHT22;1821;50.936;6.854;2023-04-19T08:31:10;13.30;99.90
3614;DHT22;1821;50.936;6.854;2023-04-19T08:31:54;13.40;99.90
3614;DHT22;1821;50.936;6.854;2023-04-19T08:33:21;13.50;99.90
3614;DHT22;1821;50.936;6.854;2023-04-19T08:34:03;13.50;99.90
3614;DHT22;1821;50.936;6.854;2023-04-19T08:34:45;13.50;99.90
3614;DHT22;1821;50.936;6.854;2023-04-19T08:35:27;13.60;99.90
3614;DHT22;1821;50.936;6.854;2023-04-19T08:36:11;13.50;99.90
3614;DHT22;1821;50.936;6.854;2023-04-19T08:37:00;13.50;99.90
3614;DHT22;1821;50.936;6.854;2023-04-19T08:37:45;13.60;99.90
3614;DHT22;1821;50.936;6.854;2023-04-19T08:39:10;13.40;99.90
3614;DHT22;1821;50.936;6.854;2023-04-19T08:40:10;13.40;99.90
3614;DHT22;1821;50.936;6.854;2023-04-19T08:40:53;13.40;99.90
3614;DHT22;1821;50.936;6.854;2023-04-19T08:41:39;13.40;99.90
3614;DHT22;1821;50.936;6.854;2023-04-19T08:42:21;13.30;99.90
3614;DHT22;1821;50.936;6.854;2023-04-19T08:44:45;13.40;99.90
3614;DHT22;1821;50.936;6.854;2023-04-19T08:46:13;13.20;99.90
3614;DHT22;1821;50.936;6.854;2023-04-19T08:47:39;13.30;99.90
3614;DHT22;1821;50.936;6.854;2023-04-19T08:48:37;13.40;99.90
3614;DHT22;1821;50.936;6.854;2023-04-19T08:49:21;13.40;99.90
3614;DHT22;1821;50.936;6.854;2023-04-19T08:50:05;13.50;99.90
3614;DHT22;1821;50.936;6.854;2023-04-19T08:51:05;13.50;99.90
3614;DHT22;1821;50.936;6.854;2023-04-19T08:52:36;13.60;99.90
3614;DHT22;1821;50.936;6.854;2023-04-19T08:53:36;13.60;99.90
3614;DHT22;1821;50.936;6.854;2023-04-19T08:54:20;13.70;99.90
3614;DHT22;1821;50.936;6.854;2023-04-19T08:55:04;14.00;99.90
3614;DHT22;1821;50.936;6.854;2023-04-19T08:55:46;13.80;99.90
3614;DHT22;1821;50.936;6.854;2023-04-19T08:56:49;14.10;99.90
3614;DHT22;1821;50.936;6.854;2023-04-19T08:57:31;13.90;99.90
3614;DHT22;1821;50.936;6.854;2023-04-19T08:58:13;13.80;99.90
3614;DHT22;1821;50.936;6.854;2023-04-19T08:59:13;13.80;99.90
3614;DHT22;1821;50.936;6.854;2023-04-19T09:00:02;13.80;99.90
3614;DHT22;1821;50.936;6.854;2023-04-19T09:00:48;13.80;99.90
3614;DHT22;1821;50.936;6.854;2023-04-19T09:03:00;14.00;99.90
3614;DHT22;1821;50.936;6.854;2023-04-19T09:03:45;14.10;99.90
3614;DHT22;1821;50.936;6.854;2023-04-19T09:04:41;14.10;99.90
3614;DHT22;1821;50.936;6.854;2023-04-19T09:05:23;14.20;99.90
3614;DHT22;1821;50.936;6.854;2023-04-19T09:06:06;14.40;99.90
3614;DHT22;1821;50.936;6.854;2023-04-19T09:06:48;14.30;99.90
3614;DHT22;1821;50.936;6.854;2023-04-19T09:07:30;14.30;99.90
3614;DHT22;1821;50.936;6.854;2023-04-19T09:08:29;14.50;99.90
3614;DHT22;1821;50.936;6.854;2023-04-19T09:10:59;14.30;99.90
3614;DHT22;1821;50.936;6.854;2023-04-19T09:11:41;14.50;99.90
3614;DHT22;1821;50.936;6.854;2023-04-19T09:12:24;14.60;99.90
3614;DHT22;1821;50.936;6.854;2023-04-19T09:13:09;14.40;99.90
3614;DHT22;1821;50.936;6.854;2023-04-19T09:14:16;14.30;99.90
3614;DHT22;1821;50.936;6.854;2023-04-19T09:14:58;14.20;99.90
3614;DHT22;1821;50.936;6.854;2023-04-19T09:15:43;14.10;99.90
3614;DHT22;1821;50.936;6.854;2023-04-19T09:16:25;14.10;99.90
3614;DHT22;1821;50.936;6.854;2023-04-19T09:17:15;13.90;99.90
3614;DHT22;1821;50.936;6.854;2023-04-19T09:18:07;14.10;99.90
3614;DHT22;1821;50.936;6.854;2023-04-19T09:18:55;14.20;99.90
3614;DHT22;1821;50.936;6.854;2023-04-19T09:19:56;14.20;99.90
3614;DHT22;1821;50.936;6.854;2023-04-19T09:20:41;14.30;99.90
3614;DHT22;1821;50.936;6.854;2023-04-19T09:21:31;14.40;99.90
3614;DHT22;1821;50.936;6.854;2023-04-19T09:22:13;14.50;99.90
3614;DHT22;1821;50.936;6.854;2023-04-19T09:23:06;14.50;99.90
3614;DHT22;1821;50.936;6.854;2023-04-19T09:23:48;14.30;99.90
3614;DHT22;1821;50.936;6.854;2023-04-19T09:24:39;14.20;99.90
3614;DHT22;1821;50.936;6.854;2023-04-19T09:25:24;14.10;99.90
3614;DHT22;1821;50.936;6.854;2023-04-19T09:27:15;14.40;99.90
3614;DHT22;1821;50.936;6.854;2023-04-19T09:29:56;14.50;99.90
3614;DHT22;1821;50.936;6.854;2023-04-19T09:31:39;14.50;99.90
3614;DHT22;1821;50.936;6.854;2023-04-19T09:33:35;14.50;99.90
3614;DHT22;1821;50.936;6.854;2023-04-19T09:35:03;14.50;99.90
3614;DHT22;1821;50.936;6.854;2023-04-19T09:35:46;14.70;99.90
3614;DHT22;1821;50.936;6.854;2023-04-19T09:38:13;14.70;99.90
3614;DHT22;1821;50.936;6.854;2023-04-19T09:38:56;14.70;99.90
3614;DHT22;1821;50.936;6.854;2023-04-19T09:39:39;14.60;99.90
3614;DHT22;1821;50.936;6.854;2023-04-19T09:40:22;14.50;99.90
3614;DHT22;1821;50.936;6.854;2023-04-19T09:41:07;14.30;99.90
3614;DHT22;1821;50.936;6.854;2023-04-19T09:41:53;14.70;99.90
3614;DHT22;1821;50.936;6.854;2023-04-19T10:14:24;14.60;99.90
3614;DHT22;1821;50.936;6.854;2023-04-19T10:15:08;14.70;99.90
3614;DHT22;1821;50.936;6.854;2023-04-19T10:15:52;14.80;99.90
3614;DHT22;1821;50.936;6.854;2023-04-19T10:52:29;15.60;99.90
3614;DHT22;1821;50.936;6.854;2023-04-19T10:53:42;15.20;99.90
3614;DHT22;1821;50.936;6.854;2023-04-19T10:54:32;15.30;99.90
3614;DHT22;1821;50.936;6.854;2023-04-19T10:55:17;15.40;99.90
3614;DHT22;1821;50.936;6.854;2023-04-19T10:56:00;15.30;99.90
3614;DHT22;1821;50.936;6.854;2023-04-19T10:58:12;15.30;99.90
3614;DHT22;1821;50.936;6.854;2023-04-19T10:59:42;15.30;99.90
3614;DHT22;1821;50.936;6.854;2023-04-19T11:00:25;15.00;99.90
3614;DHT22;1821;50.936;6.854;2023-04-19T11:01:45;15.10;99.90
3614;DHT22;1821;50.936;6.854;2023-04-19T11:08:28;15.50;99.90
3614;DHT22;1821;50.936;6.854;2023-04-19T11:09:10;15.40;99.90
3614;DHT22;1821;50.936;6.854;2023-04-19T11:09:55;15.50;99.90
3614;DHT22;1821;50.936;6.854;2023-04-19T11:10:37;15.30;99.90
3614;DHT22;1821;50.936;6.854;2023-04-19T11:11:20;15.30;99.90
3614;DHT22;1821;50.936;6.854;2023-04-19T12:02:22;15.50;99.90
3614;DHT22;1821;50.936;6.854;2023-04-19T12:03:04;15.30;99.90
3614;DHT22;1821;50.936;6.854;2023-04-19T12:03:53;15.20;99.90
3614;DHT22;1821;50.936;6.854;2023-04-19T12:12:31;15.30;99.90
3614;DHT22;1821;50.936;6.854;2023-04-19T12:13:16;15.40;99.90
3614;DHT22;1821;50.936;6.854;2023-04-19T12:14:08;15.40;99.90
3614;DHT22;1821;50.936;6.854;2023-04-19T12:16:27;15.10;99.90
3614;DHT22;1821;50.936;6.854;2023-04-19T12:17:10;15.20;99.90
3614;DHT22;1821;50.936;6.854;2023-04-19T12:20:35;15.20;99.90
3614;DHT22;1821;50.936;6.854;2023-04-19T12:21:30;14.90;98.50